Time;durP1;ratioP1;P1;durP2;ratioP2;P2;SDS_P1;SDS_P2;PMS_P1;PMS_P2;Temp;Humidity;BMP_temperature;BMP_pressure;BME280_temperature;BME280_humidity;BME280_pressure;Samples;Min_cycle;Max_cycle;Signal;HPM_P1;HPM_P2
2022/10/13 00:00:16;;;;;;;;;;;12.60;99.90;;;;;;4952781;28;20012;-76
2022/10/13 00:02:45;;;;;;;;;;;12.70;99.90;;;;;;4949420;28;20020;-77
2022/10/13 00:05:12;;;;;;;;;;;12.70;99.90;;;;;;4951958;28;19930;-75
2022/10/13 00:07:39;;;;;;;;;;;12.70;99.90;;;;;;4952254;28;20017;-76
2022/10/13 00:10:06;;;;;;;;;;;12.60;99.90;;;;;;4950989;28;20069;-75
2022/10/13 00:12:34;;;;;;;;;;;12.60;99.90;;;;;;4948856;28;19926;-76
2022/10/13 00:15:05;;;;;;;;;;;12.60;99.90;;;;;;4969878;28;19933;-76
2022/10/13 00:17:33;;;;;;;;;;;12.60;99.90;;;;;;4954586;28;19941;-76
2022/10/13 00:19:59;;;;;;;;;;;12.60;99.90;;;;;;4952203;28;20030;-77
2022/10/13 00:22:27;;;;;;;;;;;12.50;99.90;;;;;;4948752;28;20457;-76
2022/10/13 00:24:54;;;;;;;;;;;12.50;99.90;;;;;;4948701;28;20420;-75
2022/10/13 00:27:21;;;;;;;;;;;12.50;99.90;;;;;;4949928;28;20523;-76
2022/10/13 00:29:48;;;;;;;;;;;12.50;99.90;;;;;;4948286;28;20049;-76
2022/10/13 00:32:16;;;;;;;;;;;12.50;99.90;;;;;;4949440;28;19926;-77
2022/10/13 00:34:43;;;;;;;;;;;12.50;99.90;;;;;;4951446;28;20024;-77
2022/10/13 00:37:10;;;;;;;;;;;12.50;99.90;;;;;;4952275;28;20393;-77
2022/10/13 00:39:37;;;;;;;;;;;12.50;99.90;;;;;;4953389;28;19961;-76
2022/10/13 00:42:04;;;;;;;;;;;12.50;99.90;;;;;;4940421;28;19930;-76
2022/10/13 00:44:50;;;;;;;;;;;12.50;99.90;;;;;;4952089;28;20435;-76
2022/10/13 00:47:19;;;;;;;;;;;12.50;99.90;;;;;;4945962;28;20316;-77
2022/10/13 00:49:46;;;;;;;;;;;12.40;99.90;;;;;;4956315;28;20385;-77
2022/10/13 00:52:14;;;;;;;;;;;12.50;99.90;;;;;;4951866;28;19926;-75
2022/10/13 00:54:41;;;;;;;;;;;12.50;99.90;;;;;;4947069;28;19926;-76
2022/10/13 00:57:08;;;;;;;;;;;12.50;99.90;;;;;;4952344;28;20056;-76
2022/10/13 00:59:35;;;;;;;;;;;12.40;99.90;;;;;;4953366;28;19974;-76
2022/10/13 01:02:02;;;;;;;;;;;12.50;99.90;;;;;;4952326;28;20143;-77
2022/10/13 01:04:33;;;;;;;;;;;12.40;99.90;;;;;;4953326;28;19949;-77
2022/10/13 01:07:00;;;;;;;;;;;12.40;99.90;;;;;;4946701;28;20050;-77
2022/10/13 01:09:33;;;;;;;;;;;12.40;99.90;;;;;;4953676;28;19933;-76
2022/10/13 01:12:02;;;;;;;;;;;12.40;99.90;;;;;;4956555;28;20034;-76
2022/10/13 01:14:34;;;;;;;;;;;12.50;99.90;;;;;;4954232;28;20400;-77
2022/10/13 01:17:05;;;;;;;;;;;12.40;99.90;;;;;;4968006;28;19981;-76
2022/10/13 01:19:43;;;;;;;;;;;12.40;99.90;;;;;;4956496;28;19972;-76
2022/10/13 01:22:17;;;;;;;;;;;12.40;99.90;;;;;;4948778;28;19930;-76
2022/10/13 01:24:46;;;;;;;;;;;12.40;99.90;;;;;;4956018;28;19930;-76
2022/10/13 01:27:17;;;;;;;;;;;12.40;99.90;;;;;;4955052;28;20285;-76
2022/10/13 01:30:13;;;;;;;;;;;12.30;99.90;;;;;;4954607;28;20868;-76
2022/10/13 01:32:48;;;;;;;;;;;12.40;99.90;;;;;;4956142;28;19948;-77
2022/10/13 01:35:18;;;;;;;;;;;12.40;99.90;;;;;;4952541;28;20319;-75
2022/10/13 01:37:47;;;;;;;;;;;12.40;99.90;;;;;;4954628;28;20568;-77
2022/10/13 01:40:18;;;;;;;;;;;12.40;99.90;;;;;;4952335;28;20416;-77
2022/10/13 01:42:48;;;;;;;;;;;12.40;99.90;;;;;;4953274;28;20392;-76
2022/10/13 01:45:17;;;;;;;;;;;12.40;99.90;;;;;;4956188;28;20013;-76
2022/10/13 01:47:45;;;;;;;;;;;12.30;99.90;;;;;;4955232;28;19930;-77
2022/10/13 01:50:14;;;;;;;;;;;12.30;99.90;;;;;;4948671;28;19942;-76
2022/10/13 01:52:41;;;;;;;;;;;12.30;99.90;;;;;;4954276;28;20394;-77
2022/10/13 01:55:10;;;;;;;;;;;12.30;99.90;;;;;;4957379;28;20404;-76
2022/10/13 01:57:38;;;;;;;;;;;12.30;99.90;;;;;;4955054;28;20020;-76
2022/10/13 02:00:06;;;;;;;;;;;12.30;99.90;;;;;;4956116;28;20053;-76
2022/10/13 02:02:43;;;;;;;;;;;12.30;99.90;;;;;;4959591;28;20017;-76
2022/10/13 02:05:14;;;;;;;;;;;12.20;99.90;;;;;;4956667;28;20025;-76
2022/10/13 02:07:48;;;;;;;;;;;12.20;99.90;;;;;;4957172;28;20028;-76
2022/10/13 02:10:25;;;;;;;;;;;12.20;99.90;;;;;;4954371;28;19989;-76
2022/10/13 02:12:56;;;;;;;;;;;12.20;99.90;;;;;;4959924;28;20021;-75
2022/10/13 02:15:25;;;;;;;;;;;12.20;99.90;;;;;;4949301;28;19930;-75
2022/10/13 02:17:52;;;;;;;;;;;12.20;99.90;;;;;;4955790;28;19930;-76
2022/10/13 02:20:19;;;;;;;;;;;12.20;99.90;;;;;;4956155;28;19942;-75
2022/10/13 02:22:50;;;;;;;;;;;12.20;99.90;;;;;;4948547;28;19933;-75
2022/10/13 02:25:17;;;;;;;;;;;12.20;99.90;;;;;;4950668;28;19944;-75
2022/10/13 02:27:44;;;;;;;;;;;12.10;99.90;;;;;;4955587;28;19932;-77
2022/10/13 02:30:19;;;;;;;;;;;12.10;99.90;;;;;;4952061;28;20029;-77
2022/10/13 02:32:46;;;;;;;;;;;12.10;99.90;;;;;;4953498;28;20060;-76
2022/10/13 02:35:13;;;;;;;;;;;12.10;99.90;;;;;;4952082;28;20468;-76
2022/10/13 02:37:40;;;;;;;;;;;12.10;99.90;;;;;;4948396;28;20405;-77
2022/10/13 02:40:13;;;;;;;;;;;12.10;99.90;;;;;;4951544;28;20568;-76
2022/10/13 02:42:40;;;;;;;;;;;12.10;99.90;;;;;;4950646;28;19932;-77
2022/10/13 02:45:08;;;;;;;;;;;12.10;99.90;;;;;;4951416;28;19927;-77
2022/10/13 02:47:34;;;;;;;;;;;12.10;99.90;;;;;;4952646;28;19927;-77
2022/10/13 02:50:04;;;;;;;;;;;12.00;99.90;;;;;;4956258;28;19965;-76
2022/10/13 02:52:31;;;;;;;;;;;12.00;99.90;;;;;;4953456;28;20029;-75
2022/10/13 02:54:57;;;;;;;;;;;12.00;99.90;;;;;;4953884;28;19991;-76
2022/10/13 02:57:26;;;;;;;;;;;12.00;99.90;;;;;;4953437;28;20012;-77
2022/10/13 02:59:53;;;;;;;;;;;12.00;99.90;;;;;;4952952;28;20369;-77
2022/10/13 03:02:20;;;;;;;;;;;12.00;99.90;;;;;;4953891;28;19926;-77
2022/10/13 03:04:47;;;;;;;;;;;12.00;99.90;;;;;;4956802;28;19969;-77
2022/10/13 03:07:13;;;;;;;;;;;12.00;99.90;;;;;;4954442;28;19930;-76
2022/10/13 03:09:42;;;;;;;;;;;12.00;99.90;;;;;;4952337;28;20317;-77
2022/10/13 03:12:09;;;;;;;;;;;11.90;99.90;;;;;;4951913;28;19926;-76
2022/10/13 03:14:38;;;;;;;;;;;11.90;99.90;;;;;;4952155;28;19949;-75
2022/10/13 03:17:05;;;;;;;;;;;11.90;99.90;;;;;;4950975;28;19961;-77
2022/10/13 03:19:32;;;;;;;;;;;12.00;99.90;;;;;;4956151;28;20791;-76
2022/10/13 03:21:59;;;;;;;;;;;12.00;99.90;;;;;;4949798;28;19927;-77
2022/10/13 03:24:25;;;;;;;;;;;11.90;99.90;;;;;;4953220;28;19930;-76
2022/10/13 03:26:52;;;;;;;;;;;11.90;99.90;;;;;;4951395;28;19937;-76
2022/10/13 03:29:21;;;;;;;;;;;11.90;99.90;;;;;;4955734;28;19926;-76
2022/10/13 03:31:49;;;;;;;;;;;11.90;99.90;;;;;;4944578;28;19934;-77
2022/10/13 03:34:16;;;;;;;;;;;11.90;99.90;;;;;;4956993;28;20028;-77
2022/10/13 03:36:43;;;;;;;;;;;11.90;99.90;;;;;;4950360;28;20379;-77
2022/10/13 03:39:10;;;;;;;;;;;11.80;99.90;;;;;;4952729;28;19931;-76
2022/10/13 03:41:37;;;;;;;;;;;11.90;99.90;;;;;;4949950;28;20345;-77
2022/10/13 03:44:04;;;;;;;;;;;11.80;99.90;;;;;;4943418;28;19926;-77
2022/10/13 03:46:31;;;;;;;;;;;11.80;99.90;;;;;;4956029;28;20008;-77
2022/10/13 03:48:59;;;;;;;;;;;11.80;99.90;;;;;;4950872;28;20372;-77
2022/10/13 03:51:29;;;;;;;;;;;11.90;99.90;;;;;;4951011;28;20024;-77
2022/10/13 03:53:56;;;;;;;;;;;11.80;99.90;;;;;;4951377;28;20030;-77
2022/10/13 03:56:23;;;;;;;;;;;11.80;99.90;;;;;;4954098;28;19930;-77
2022/10/13 03:58:53;;;;;;;;;;;11.80;99.90;;;;;;4952968;28;19989;-75
2022/10/13 04:01:19;;;;;;;;;;;11.80;99.90;;;;;;4948017;28;20387;-77
2022/10/13 04:03:46;;;;;;;;;;;11.80;99.90;;;;;;4950383;28;19973;-78
2022/10/13 04:06:14;;;;;;;;;;;11.80;99.90;;;;;;4953292;28;19990;-78
2022/10/13 04:08:41;;;;;;;;;;;11.80;99.90;;;;;;4949317;28;20013;-78
2022/10/13 04:11:10;;;;;;;;;;;11.80;99.90;;;;;;4949669;28;19977;-82
2022/10/13 04:13:40;;;;;;;;;;;11.80;99.90;;;;;;4965712;28;19953;-86
2022/10/13 04:16:08;;;;;;;;;;;11.70;99.90;;;;;;4957553;28;21458;-77
2022/10/13 04:18:35;;;;;;;;;;;11.80;99.90;;;;;;4946927;28;19952;-79
2022/10/13 04:21:02;;;;;;;;;;;11.80;99.90;;;;;;4954704;28;20372;-90
2022/10/13 04:23:30;;;;;;;;;;;11.80;99.90;;;;;;4949073;28;20013;-77
2022/10/13 04:25:57;;;;;;;;;;;11.80;99.90;;;;;;4958156;28;20380;-80
2022/10/13 04:28:23;;;;;;;;;;;11.80;99.90;;;;;;4952509;28;20065;-80
2022/10/13 04:30:50;;;;;;;;;;;11.80;99.90;;;;;;4949553;28;19989;-78
2022/10/13 04:33:17;;;;;;;;;;;11.80;99.90;;;;;;4951137;28;20407;-78
2022/10/13 04:35:44;;;;;;;;;;;11.80;99.90;;;;;;4950081;28;19936;-77
2022/10/13 04:38:11;;;;;;;;;;;11.80;99.90;;;;;;4952511;28;19930;-87
2022/10/13 04:40:39;;;;;;;;;;;11.80;99.90;;;;;;4956395;28;20020;-79
2022/10/13 04:43:06;;;;;;;;;;;11.70;99.90;;;;;;4954718;28;20032;-79
2022/10/13 04:45:32;;;;;;;;;;;11.80;99.90;;;;;;4951329;28;20405;-81
2022/10/13 04:48:00;;;;;;;;;;;11.70;99.90;;;;;;4959975;28;19933;-80
2022/10/13 04:50:27;;;;;;;;;;;11.70;99.90;;;;;;4967927;28;19934;-79
2022/10/13 04:52:58;;;;;;;;;;;11.70;99.90;;;;;;4956984;28;19930;-78
2022/10/13 04:55:25;;;;;;;;;;;11.80;99.90;;;;;;4960419;28;20453;-80
2022/10/13 04:57:53;;;;;;;;;;;11.70;99.90;;;;;;4961153;28;19948;-79
2022/10/13 05:00:20;;;;;;;;;;;11.80;99.90;;;;;;4962443;28;19934;-80
2022/10/13 05:02:47;;;;;;;;;;;11.80;99.90;;;;;;4965017;28;19926;-89
2022/10/13 05:05:14;;;;;;;;;;;11.80;99.90;;;;;;4958324;28;19934;-79
2022/10/13 05:07:40;;;;;;;;;;;11.80;99.90;;;;;;4960566;28;19933;-79
2022/10/13 05:10:08;;;;;;;;;;;11.80;99.90;;;;;;4950630;28;19934;-79
2022/10/13 05:12:37;;;;;;;;;;;11.80;99.90;;;;;;4973203;28;20028;-82
2022/10/13 05:15:06;;;;;;;;;;;11.80;99.90;;;;;;4962511;28;19976;-79
2022/10/13 05:17:33;;;;;;;;;;;11.80;99.90;;;;;;4961541;28;19937;-76
2022/10/13 05:20:01;;;;;;;;;;;11.80;99.90;;;;;;4961052;28;19926;-77
2022/10/13 05:22:28;;;;;;;;;;;11.70;99.90;;;;;;4955399;28;20017;-77
2022/10/13 05:24:55;;;;;;;;;;;11.70;99.90;;;;;;4960353;28;20483;-77
2022/10/13 05:27:22;;;;;;;;;;;11.70;99.90;;;;;;4961696;28;19934;-77
2022/10/13 05:29:49;;;;;;;;;;;11.70;99.90;;;;;;4961275;28;19954;-77
2022/10/13 05:32:17;;;;;;;;;;;11.70;99.90;;;;;;4954260;28;20418;-84
2022/10/13 05:34:44;;;;;;;;;;;11.70;99.90;;;;;;4947401;28;19992;-76
2022/10/13 05:37:11;;;;;;;;;;;11.70;99.90;;;;;;4957791;28;20475;-76
2022/10/13 05:39:38;;;;;;;;;;;11.70;99.90;;;;;;4958424;28;20034;-74
2022/10/13 05:42:04;;;;;;;;;;;11.70;99.90;;;;;;4956750;28;19930;-75
2022/10/13 05:44:31;;;;;;;;;;;11.70;99.90;;;;;;4959179;28;19976;-76
2022/10/13 05:46:58;;;;;;;;;;;11.70;99.90;;;;;;4962866;28;19926;-86
2022/10/13 05:49:26;;;;;;;;;;;11.60;99.90;;;;;;4976395;28;19930;-80
2022/10/13 05:51:55;;;;;;;;;;;11.70;99.90;;;;;;4960780;28;19926;-77
2022/10/13 05:54:28;;;;;;;;;;;11.70;99.90;;;;;;4957483;28;20335;-77
2022/10/13 05:56:57;;;;;;;;;;;11.70;99.90;;;;;;4975811;28;19926;-88
2022/10/13 05:59:25;;;;;;;;;;;11.70;99.90;;;;;;4963228;28;20411;-77
2022/10/13 06:01:53;;;;;;;;;;;11.70;99.90;;;;;;4959035;28;19930;-76
2022/10/13 06:04:21;;;;;;;;;;;11.70;99.90;;;;;;4959444;28;20032;-77
2022/10/13 06:06:49;;;;;;;;;;;11.70;99.90;;;;;;4974359;28;20025;-77
2022/10/13 06:09:16;;;;;;;;;;;11.70;99.90;;;;;;4962410;28;20239;-77
2022/10/13 06:11:43;;;;;;;;;;;11.70;99.90;;;;;;4960180;28;19926;-76
2022/10/13 06:14:10;;;;;;;;;;;11.70;99.90;;;;;;4957390;28;20397;-77
2022/10/13 06:16:37;;;;;;;;;;;11.70;99.90;;;;;;4955229;28;19948;-76
2022/10/13 06:19:04;;;;;;;;;;;11.70;99.90;;;;;;4959807;28;20439;-77
2022/10/13 06:21:31;;;;;;;;;;;11.70;99.90;;;;;;4979292;28;19958;-77
2022/10/13 06:24:00;;;;;;;;;;;11.70;99.90;;;;;;4963057;28;19932;-77
2022/10/13 06:26:26;;;;;;;;;;;11.70;99.90;;;;;;4977112;28;20030;-77
2022/10/13 06:28:53;;;;;;;;;;;11.70;99.90;;;;;;4959450;28;20025;-77
2022/10/13 06:31:23;;;;;;;;;;;11.70;99.90;;;;;;4957890;28;20478;-76
2022/10/13 06:33:50;;;;;;;;;;;11.70;99.90;;;;;;4963300;28;19930;-77
2022/10/13 06:36:17;;;;;;;;;;;11.70;99.90;;;;;;4963117;28;20020;-77
2022/10/13 06:38:43;;;;;;;;;;;11.70;99.90;;;;;;4960405;28;19931;-77
2022/10/13 06:41:13;;;;;;;;;;;11.70;99.90;;;;;;4962836;28;19942;-77
2022/10/13 06:43:40;;;;;;;;;;;11.70;99.90;;;;;;4961677;28;20355;-77
2022/10/13 06:46:09;;;;;;;;;;;11.70;99.90;;;;;;4975193;28;20616;-77
2022/10/13 06:48:36;;;;;;;;;;;11.70;99.90;;;;;;4971569;28;19927;-77
2022/10/13 06:51:04;;;;;;;;;;;11.70;99.90;;;;;;4960434;28;20012;-77
2022/10/13 06:53:31;;;;;;;;;;;11.70;99.90;;;;;;4961821;28;19948;-76
2022/10/13 06:55:58;;;;;;;;;;;11.70;99.90;;;;;;4957070;28;20385;-77
2022/10/13 06:58:26;;;;;;;;;;;11.70;99.90;;;;;;4962008;28;19931;-77
2022/10/13 07:00:53;;;;;;;;;;;11.70;99.90;;;;;;4960359;28;20389;-77
2022/10/13 07:03:20;;;;;;;;;;;11.70;99.90;;;;;;4962329;28;20351;-77
2022/10/13 07:05:47;;;;;;;;;;;11.70;99.90;;;;;;4960612;28;20427;-77
2022/10/13 07:08:14;;;;;;;;;;;11.70;99.90;;;;;;4960373;28;19926;-77
2022/10/13 07:10:41;;;;;;;;;;;11.70;99.90;;;;;;4961001;28;19964;-76
2022/10/13 07:13:08;;;;;;;;;;;11.70;99.90;;;;;;4961280;28;19958;-77
2022/10/13 07:15:38;;;;;;;;;;;11.70;99.90;;;;;;4957240;28;19952;-77
2022/10/13 07:18:05;;;;;;;;;;;11.70;99.90;;;;;;4958782;28;20296;-77
2022/10/13 07:20:32;;;;;;;;;;;11.70;99.90;;;;;;4959586;28;19926;-77
2022/10/13 07:22:59;;;;;;;;;;;11.70;99.90;;;;;;4958226;28;19984;-77
2022/10/13 07:25:26;;;;;;;;;;;11.70;99.90;;;;;;4960349;28;19936;-77
2022/10/13 07:27:53;;;;;;;;;;;11.70;99.90;;;;;;4959248;28;19926;-77
2022/10/13 07:30:20;;;;;;;;;;;11.70;99.90;;;;;;4958668;28;19929;-77
2022/10/13 07:32:48;;;;;;;;;;;11.70;99.90;;;;;;4957234;28;19930;-77
2022/10/13 07:35:15;;;;;;;;;;;11.80;99.90;;;;;;4962280;28;20356;-77
2022/10/13 07:37:42;;;;;;;;;;;11.70;99.90;;;;;;4957190;28;20177;-77
2022/10/13 07:40:10;;;;;;;;;;;11.70;99.90;;;;;;4958047;28;19958;-77
2022/10/13 07:42:37;;;;;;;;;;;11.80;99.90;;;;;;4958734;28;19926;-77
2022/10/13 07:45:04;;;;;;;;;;;11.80;99.90;;;;;;4961006;28;19976;-77
2022/10/13 07:47:31;;;;;;;;;;;11.70;99.90;;;;;;4960642;28;19930;-77
2022/10/13 07:49:59;;;;;;;;;;;11.80;99.90;;;;;;4959150;28;20300;-77
2022/10/13 07:52:26;;;;;;;;;;;11.80;99.90;;;;;;4959502;28;20479;-77
2022/10/13 07:54:53;;;;;;;;;;;11.80;99.90;;;;;;4959943;28;20033;-77
2022/10/13 07:57:19;;;;;;;;;;;11.80;99.90;;;;;;4957855;28;19958;-77
2022/10/13 07:59:46;;;;;;;;;;;11.80;99.90;;;;;;4962313;28;20077;-76
2022/10/13 08:02:13;;;;;;;;;;;11.80;99.90;;;;;;4959032;28;19930;-77
2022/10/13 08:04:40;;;;;;;;;;;11.80;99.90;;;;;;4957974;28;19934;-77
2022/10/13 08:07:08;;;;;;;;;;;11.80;99.90;;;;;;4959348;28;19973;-77
2022/10/13 08:09:35;;;;;;;;;;;11.80;99.90;;;;;;4960015;28;19927;-77
2022/10/13 08:12:02;;;;;;;;;;;11.80;99.90;;;;;;4961946;28;20304;-77
2022/10/13 08:14:29;;;;;;;;;;;11.80;99.90;;;;;;4957649;28;19965;-77
2022/10/13 08:16:56;;;;;;;;;;;11.80;99.90;;;;;;4959524;28;20017;-77
2022/10/13 08:19:25;;;;;;;;;;;11.80;99.90;;;;;;4958915;28;20639;-77
2022/10/13 08:21:52;;;;;;;;;;;11.90;99.90;;;;;;4964119;28;19961;-77
2022/10/13 08:24:21;;;;;;;;;;;11.90;99.90;;;;;;4960368;28;20423;-76
2022/10/13 08:26:48;;;;;;;;;;;11.90;99.90;;;;;;4964119;28;19941;-75
2022/10/13 08:29:15;;;;;;;;;;;11.90;99.90;;;;;;4965764;28;20385;-77
2022/10/13 08:31:42;;;;;;;;;;;11.90;99.90;;;;;;4965249;28;19926;-76
2022/10/13 08:34:09;;;;;;;;;;;11.90;99.90;;;;;;4963231;28;19929;-77
2022/10/13 08:36:37;;;;;;;;;;;11.90;99.90;;;;;;4980638;28;19960;-73
2022/10/13 08:39:03;;;;;;;;;;;12.00;99.90;;;;;;4962656;28;19934;-77
2022/10/13 08:41:32;;;;;;;;;;;12.00;99.90;;;;;;4963348;28;20559;-76
2022/10/13 08:44:05;;;;;;;;;;;12.00;99.90;;;;;;4964036;28;20372;-77
2022/10/13 08:46:35;;;;;;;;;;;12.00;99.90;;;;;;4962856;28;19930;-77
2022/10/13 08:49:01;;;;;;;;;;;12.00;99.90;;;;;;4964708;28;19926;-77
2022/10/13 08:51:29;;;;;;;;;;;12.00;99.90;;;;;;4962955;28;19934;-77
2022/10/13 08:53:56;;;;;;;;;;;12.00;99.90;;;;;;4961499;28;19937;-77
2022/10/13 08:56:24;;;;;;;;;;;12.00;99.90;;;;;;4965551;28;20395;-77
2022/10/13 08:58:55;;;;;;;;;;;12.00;99.90;;;;;;4961356;28;19985;-77
2022/10/13 09:01:23;;;;;;;;;;;12.10;99.90;;;;;;4961122;28;20411;-77
2022/10/13 09:03:52;;;;;;;;;;;12.10;99.90;;;;;;4959592;28;19926;-77
2022/10/13 09:06:26;;;;;;;;;;;12.10;99.90;;;;;;4964857;28;19933;-77
2022/10/13 09:08:54;;;;;;;;;;;12.10;99.90;;;;;;4965834;28;20439;-77
2022/10/13 09:11:21;;;;;;;;;;;12.10;99.90;;;;;;4961291;28;19926;-77
2022/10/13 09:13:48;;;;;;;;;;;12.20;99.90;;;;;;4964467;28;20012;-77
2022/10/13 09:16:17;;;;;;;;;;;12.10;99.90;;;;;;4962767;28;20353;-77
2022/10/13 09:18:44;;;;;;;;;;;12.20;99.90;;;;;;4964086;28;19996;-77
2022/10/13 09:21:18;;;;;;;;;;;12.20;99.90;;;;;;4962153;28;20464;-77
2022/10/13 09:23:45;;;;;;;;;;;12.20;99.90;;;;;;4962886;28;19941;-77
2022/10/13 09:26:16;;;;;;;;;;;12.20;99.90;;;;;;4963674;28;19930;-77
2022/10/13 09:28:43;;;;;;;;;;;12.20;99.90;;;;;;4961395;28;20163;-77
2022/10/13 09:31:14;;;;;;;;;;;12.20;99.90;;;;;;4961908;28;19977;-76
2022/10/13 09:33:43;;;;;;;;;;;12.30;99.90;;;;;;4963876;28;19926;-76
2022/10/13 09:36:13;;;;;;;;;;;12.30;99.90;;;;;;4966534;28;19926;-77
2022/10/13 09:38:41;;;;;;;;;;;12.30;99.90;;;;;;4958048;28;19965;-76
2022/10/13 09:41:13;;;;;;;;;;;12.30;99.90;;;;;;4963330;28;19926;-76
2022/10/13 09:43:41;;;;;;;;;;;12.30;99.90;;;;;;4958000;28;20436;-77
2022/10/13 09:46:12;;;;;;;;;;;12.30;99.90;;;;;;4964730;28;20009;-76
2022/10/13 09:48:41;;;;;;;;;;;12.40;99.90;;;;;;4971792;28;20436;-76
2022/10/13 09:51:27;;;;;;;;;;;12.40;99.90;;;;;;4962072;28;20396;-76
2022/10/13 09:53:53;;;;;;;;;;;12.40;99.90;;;;;;4959973;28;19937;-77
2022/10/13 09:56:23;;;;;;;;;;;12.40;99.90;;;;;;4962957;28;19926;-77
2022/10/13 09:58:52;;;;;;;;;;;12.40;99.90;;;;;;4958515;28;19957;-77
2022/10/13 10:01:22;;;;;;;;;;;12.50;99.90;;;;;;4958052;28;20013;-77
2022/10/13 10:03:50;;;;;;;;;;;12.50;99.90;;;;;;4966655;28;19930;-76
2022/10/13 10:06:19;;;;;;;;;;;12.50;99.90;;;;;;4962132;28;19934;-77
2022/10/13 10:08:50;;;;;;;;;;;12.50;99.90;;;;;;4960522;28;19930;-77
2022/10/13 10:11:18;;;;;;;;;;;12.50;99.90;;;;;;4960894;28;19934;-77
2022/10/13 10:13:45;;;;;;;;;;;12.60;99.90;;;;;;4959435;28;20396;-77
2022/10/13 10:16:14;;;;;;;;;;;12.50;99.90;;;;;;4959656;28;20018;-77
2022/10/13 10:18:45;;;;;;;;;;;12.60;99.90;;;;;;4961861;28;19936;-77
2022/10/13 10:21:16;;;;;;;;;;;12.60;99.90;;;;;;4964953;28;19926;-76
2022/10/13 10:23:46;;;;;;;;;;;12.70;99.90;;;;;;4949736;28;19937;-77
2022/10/13 10:26:18;;;;;;;;;;;12.60;99.90;;;;;;4951053;28;20016;-77
2022/10/13 10:28:54;;;;;;;;;;;12.70;99.90;;;;;;4958605;28;19962;-76
2022/10/13 10:31:26;;;;;;;;;;;12.70;99.90;;;;;;4956871;28;19933;-77
2022/10/13 10:33:58;;;;;;;;;;;12.70;99.90;;;;;;4959369;28;19941;-77
2022/10/13 10:36:31;;;;;;;;;;;12.70;99.90;;;;;;4959247;28;21933;-76
2022/10/13 10:39:02;;;;;;;;;;;12.70;99.90;;;;;;4954639;28;19997;-76
2022/10/13 10:41:36;;;;;;;;;;;12.80;99.90;;;;;;4955639;28;19926;-76
2022/10/13 10:44:07;;;;;;;;;;;12.80;99.90;;;;;;4953053;28;20042;-77
2022/10/13 10:46:35;;;;;;;;;;;12.80;99.90;;;;;;4951393;28;20985;-76
2022/10/13 10:49:04;;;;;;;;;;;13.00;99.90;;;;;;4953341;28;20336;-76
2022/10/13 10:51:32;;;;;;;;;;;13.00;99.90;;;;;;4960920;28;20008;-76
2022/10/13 10:54:05;;;;;;;;;;;13.10;99.90;;;;;;4971168;28;19973;-76
2022/10/13 10:56:33;;;;;;;;;;;13.10;99.90;;;;;;4951319;28;19926;-76
2022/10/13 10:59:06;;;;;;;;;;;13.20;99.90;;;;;;4952284;28;20013;-78
2022/10/13 11:01:36;;;;;;;;;;;13.10;99.90;;;;;;4958306;28;20028;-77
2022/10/13 11:04:18;;;;;;;;;;;13.10;99.90;;;;;;4959962;28;20032;-77
2022/10/13 11:06:45;;;;;;;;;;;13.10;99.90;;;;;;4960517;28;19974;-76
2022/10/13 11:09:14;;;;;;;;;;;13.10;99.90;;;;;;4959570;28;20020;-78
2022/10/13 11:11:41;;;;;;;;;;;13.10;99.90;;;;;;4971811;28;20408;-77
2022/10/13 11:14:29;;;;;;;;;;;13.10;99.90;;;;;;4958967;28;19930;-77
2022/10/13 11:17:02;;;;;;;;;;;13.20;99.90;;;;;;4960823;28;19926;-77
2022/10/13 11:19:29;;;;;;;;;;;13.20;99.90;;;;;;4956378;28;19974;-77
2022/10/13 11:22:20;;;;;;;;;;;13.20;99.90;;;;;;4964915;28;20025;-77
2022/10/13 11:25:05;;;;;;;;;;;13.20;99.90;;;;;;4959163;28;19934;-77
2022/10/13 11:27:43;;;;;;;;;;;13.20;99.90;;;;;;4949585;28;19926;-77
2022/10/13 11:30:29;;;;;;;;;;;13.30;99.90;;;;;;4959590;28;20292;-77
2022/10/13 11:32:56;;;;;;;;;;;13.30;99.90;;;;;;4956694;28;20285;-77
2022/10/13 11:35:25;;;;;;;;;;;13.30;99.90;;;;;;4956385;28;19930;-76
2022/10/13 11:38:03;;;;;;;;;;;13.30;99.90;;;;;;4959058;28;19930;-78
2022/10/13 11:40:32;;;;;;;;;;;13.30;99.90;;;;;;4959306;28;20256;-77
2022/10/13 11:43:06;;;;;;;;;;;13.40;99.90;;;;;;4962957;28;20440;-83
2022/10/13 11:45:47;;;;;;;;;;;13.40;99.90;;;;;;4957029;28;20317;-78
2022/10/13 11:48:30;;;;;;;;;;;13.40;99.90;;;;;;4958384;28;19926;-79
2022/10/13 11:51:03;;;;;;;;;;;13.40;99.90;;;;;;4966577;28;20010;-80
2022/10/13 11:53:33;;;;;;;;;;;13.40;99.90;;;;;;4966663;28;20392;-79
2022/10/13 11:56:01;;;;;;;;;;;13.40;99.90;;;;;;4963355;28;19934;-78
2022/10/13 11:58:30;;;;;;;;;;;13.50;99.90;;;;;;4979803;28;19936;-79
2022/10/13 12:00:57;;;;;;;;;;;13.50;99.90;;;;;;4968097;28;20460;-79
2022/10/13 12:03:26;;;;;;;;;;;13.50;99.90;;;;;;4968820;28;20020;-79
2022/10/13 12:05:53;;;;;;;;;;;13.50;99.90;;;;;;4965184;28;20032;-79
2022/10/13 12:08:21;;;;;;;;;;;13.50;99.90;;;;;;4964915;28;19927;-79
2022/10/13 12:10:54;;;;;;;;;;;13.60;99.90;;;;;;4963838;28;19931;-79
2022/10/13 12:13:23;;;;;;;;;;;13.60;99.90;;;;;;4962477;28;19934;-81
2022/10/13 12:15:58;;;;;;;;;;;13.70;99.90;;;;;;4966434;28;19933;-80
2022/10/13 12:18:26;;;;;;;;;;;13.80;99.90;;;;;;4968771;28;19926;-80
2022/10/13 12:20:54;;;;;;;;;;;13.90;99.90;;;;;;4962883;28;20864;-80
2022/10/13 12:23:21;;;;;;;;;;;14.00;99.90;;;;;;4967067;28;19926;-81
2022/10/13 12:25:48;;;;;;;;;;;14.00;99.90;;;;;;4961695;28;19942;-80
2022/10/13 12:28:18;;;;;;;;;;;14.00;99.90;;;;;;4967350;28;19926;-81
2022/10/13 12:30:51;;;;;;;;;;;14.10;99.90;;;;;;4964061;28;19937;-81
2022/10/13 12:33:22;;;;;;;;;;;14.10;99.90;;;;;;4964981;28;19937;-81
2022/10/13 12:35:49;;;;;;;;;;;14.20;99.90;;;;;;4966670;28;19930;-81
2022/10/13 12:38:18;;;;;;;;;;;14.10;99.90;;;;;;4966308;28;19961;-81
2022/10/13 12:40:45;;;;;;;;;;;14.20;99.90;;;;;;4962839;28;19931;-81
2022/10/13 12:43:15;;;;;;;;;;;14.20;99.90;;;;;;4975934;28;20384;-81
2022/10/13 12:45:45;;;;;;;;;;;14.20;99.90;;;;;;4957892;28;19934;-81
2022/10/13 12:48:27;;;;;;;;;;;14.30;99.90;;;;;;4977785;28;19965;-82
2022/10/13 12:50:55;;;;;;;;;;;14.30;99.90;;;;;;4961035;28;19926;-82
2022/10/13 12:53:26;;;;;;;;;;;14.30;99.90;;;;;;4964961;28;19973;-83
2022/10/13 12:55:57;;;;;;;;;;;14.40;99.90;;;;;;4964329;28;19957;-82
2022/10/13 12:58:27;;;;;;;;;;;14.40;99.90;;;;;;4967259;28;20001;-82
2022/10/13 13:01:11;;;;;;;;;;;14.50;99.90;;;;;;4960211;28;19926;-82
2022/10/13 13:03:39;;;;;;;;;;;14.40;99.90;;;;;;4953301;28;19953;-82
2022/10/13 13:06:26;;;;;;;;;;;14.40;99.90;;;;;;4963154;28;19937;-82
2022/10/13 13:09:18;;;;;;;;;;;14.50;99.90;;;;;;4963903;28;19941;-82
2022/10/13 13:11:45;;;;;;;;;;;14.50;99.90;;;;;;4968049;28;19934;-82
2022/10/13 13:14:31;;;;;;;;;;;14.50;99.90;;;;;;4965374;28;20405;-82
2022/10/13 13:17:01;;;;;;;;;;;14.50;99.90;;;;;;4965730;28;19926;-82
2022/10/13 13:19:30;;;;;;;;;;;14.50;99.90;;;;;;4965701;28;19937;-82
2022/10/13 13:21:57;;;;;;;;;;;14.60;99.90;;;;;;4959770;28;19981;-82
2022/10/13 13:24:25;;;;;;;;;;;14.60;99.90;;;;;;4966592;28;19973;-82
2022/10/13 13:26:52;;;;;;;;;;;14.60;99.90;;;;;;4964379;28;19927;-82
2022/10/13 13:29:19;;;;;;;;;;;14.60;99.90;;;;;;4969263;28;20028;-82
2022/10/13 13:31:46;;;;;;;;;;;14.60;99.90;;;;;;4963070;28;20021;-83
2022/10/13 13:34:13;;;;;;;;;;;14.70;99.90;;;;;;4963800;28;19957;-82
2022/10/13 13:36:40;;;;;;;;;;;14.70;99.90;;;;;;4970018;28;19930;-83
2022/10/13 13:39:13;;;;;;;;;;;14.70;99.90;;;;;;4967891;28;20695;-82
2022/10/13 13:41:44;;;;;;;;;;;14.70;99.90;;;;;;4955795;28;19933;-83
2022/10/13 13:44:11;;;;;;;;;;;14.80;99.90;;;;;;4980999;28;19937;-82
2022/10/13 13:46:38;;;;;;;;;;;14.80;99.90;;;;;;4964211;28;19926;-85
2022/10/13 13:49:05;;;;;;;;;;;14.90;99.90;;;;;;4967350;28;19926;-81
2022/10/13 13:51:32;;;;;;;;;;;14.90;99.90;;;;;;4967250;28;19927;-84
2022/10/13 13:53:58;;;;;;;;;;;14.90;99.90;;;;;;4964910;28;19938;-82
2022/10/13 13:56:27;;;;;;;;;;;14.90;99.90;;;;;;4944540;28;19985;-82
2022/10/13 13:58:55;;;;;;;;;;;14.90;99.90;;;;;;4963028;28;19930;-81
2022/10/13 14:01:23;;;;;;;;;;;14.90;99.90;;;;;;4964185;28;20002;-81
2022/10/13 14:03:50;;;;;;;;;;;14.90;99.90;;;;;;4953842;28;19934;-81
2022/10/13 14:06:18;;;;;;;;;;;14.90;99.90;;;;;;4971033;28;19926;-82
2022/10/13 14:08:44;;;;;;;;;;;15.00;99.90;;;;;;4957786;28;19927;-83
2022/10/13 14:11:15;;;;;;;;;;;15.10;99.90;;;;;;4961318;28;19991;-81
2022/10/13 14:13:42;;;;;;;;;;;15.40;99.90;;;;;;4963138;28;19931;-81
2022/10/13 14:16:15;;;;;;;;;;;15.40;99.90;;;;;;4962535;28;19930;-86
2022/10/13 14:18:41;;;;;;;;;;;15.30;99.90;;;;;;4964919;28;19926;-89
2022/10/13 14:21:08;;;;;;;;;;;15.40;99.90;;;;;;4965794;28;20010;-86
2022/10/13 14:23:35;;;;;;;;;;;15.40;99.90;;;;;;4960292;28;19927;-82
2022/10/13 14:26:06;;;;;;;;;;;15.40;99.90;;;;;;4965931;28;19930;-82